createdAt,value
2022-08-26T00:02:02.587Z,101513.11
2022-08-26T00:04:32.595Z,101513.09
2022-08-26T00:07:02.079Z,101511.08
2022-08-26T00:09:32.877Z,101514.49
2022-08-26T00:12:06.714Z,101505.19
2022-08-26T00:14:36.480Z,101505.26
2022-08-26T00:17:06.334Z,101502.17
2022-08-26T00:19:38.070Z,101499.98
2022-08-26T00:22:09.472Z,101501.64
2022-08-26T00:24:40.960Z,101501.64
2022-08-26T00:27:12.719Z,101504.37
2022-08-26T00:29:42.239Z,101501.59
2022-08-26T00:32:12.479Z,101501.59
2022-08-26T00:34:44.133Z,101516.01
2022-08-26T00:37:16.297Z,101519.41
2022-08-26T00:39:45.769Z,101520.98
2022-08-26T00:42:15.257Z,101523.83
2022-08-26T00:44:45.738Z,101517.20
2022-08-26T00:47:24.299Z,101521.33
2022-08-26T00:49:56.580Z,101524.70
2022-08-26T00:52:27.752Z,101511.77
2022-08-26T00:55:03.750Z,101523.03
2022-08-26T00:57:35.023Z,101505.21
2022-08-26T01:00:09.705Z,101505.21
2022-08-26T01:02:40.394Z,101504.09
2022-08-26T01:05:12.558Z,101504.09
2022-08-26T01:07:42.704Z,101530.90
2022-08-26T01:10:17.163Z,101520.21
2022-08-26T01:12:50.356Z,101519.96
2022-08-26T01:15:23.135Z,101509.41
2022-08-26T01:17:52.971Z,101511.94
2022-08-26T01:20:31.774Z,101509.53
2022-08-26T01:23:04.842Z,101507.91
2022-08-26T01:25:37.532Z,101508.46
2022-08-26T01:28:13.950Z,101515.56
2022-08-26T01:30:46.612Z,101515.30
2022-08-26T01:33:19.255Z,101508.97
2022-08-26T01:35:49.480Z,101512.00
2022-08-26T01:38:19.502Z,101518.63
2022-08-26T01:40:49.918Z,101493.19
2022-08-26T01:43:23.236Z,101493.19
2022-08-26T01:45:54.863Z,101513.42
2022-08-26T01:48:28.421Z,101514.93
2022-08-26T01:50:58.428Z,101521.28
2022-08-26T01:53:28.850Z,101502.50
2022-08-26T01:56:02.123Z,101502.50
2022-08-26T01:58:35.925Z,101518.67
2022-08-26T02:01:06.549Z,101524.89
2022-08-26T02:03:57.332Z,101527.34
2022-08-26T02:06:28.092Z,101522.44
2022-08-26T02:09:00.916Z,101526.70
2022-08-26T02:11:30.929Z,101521.13
2022-08-26T02:14:03.762Z,101522.17
2022-08-26T02:16:36.595Z,101523.59
2022-08-26T02:19:07.687Z,101525.40
2022-08-26T02:21:41.022Z,101521.59
2022-08-26T02:24:14.296Z,101522.56
2022-08-26T02:26:46.414Z,101520.90
2022-08-26T02:29:22.385Z,101522.52
2022-08-26T02:31:55.121Z,101524.74
2022-08-26T02:34:31.017Z,101523.12
2022-08-26T02:37:03.568Z,101517.59
2022-08-26T02:39:35.052Z,101519.06
2022-08-26T02:42:07.057Z,101514.06
2022-08-26T02:44:36.913Z,101513.14
2022-08-26T02:47:08.463Z,101516.44
2022-08-26T02:49:39.942Z,101512.14
2022-08-26T02:52:12.568Z,101508.81
2022-08-26T02:54:42.110Z,101503.05
2022-08-26T02:57:12.614Z,101503.05
2022-08-26T02:59:42.464Z,101522.23
2022-08-26T03:02:12.799Z,101515.29
2022-08-26T03:04:57.686Z,101523.95
2022-08-26T03:07:14.433Z,101526.38
2022-08-26T03:09:44.213Z,101525.59
2022-08-26T03:12:14.225Z,101527.66
2022-08-26T03:14:44.006Z,101525.98
2022-08-26T03:17:14.034Z,101515.69
2022-08-26T03:19:43.868Z,101515.69
2022-08-26T03:22:14.492Z,101528.97
2022-08-26T03:24:46.042Z,101527.42
2022-08-26T03:27:16.013Z,101523.80
2022-08-26T03:30:04.743Z,101532.14
2022-08-26T03:32:34.229Z,101532.66
2022-08-26T03:35:04.067Z,101538.15
2022-08-26T03:37:33.917Z,101538.23
2022-08-26T03:40:04.375Z,101536.00
2022-08-26T03:42:36.412Z,101534.48
2022-08-26T03:45:10.667Z,101530.31
2022-08-26T03:47:41.303Z,101529.95
2022-08-26T03:50:14.740Z,101524.87
2022-08-26T03:52:47.130Z,101529.28
2022-08-26T03:55:18.324Z,101529.99
2022-08-26T03:57:48.084Z,101527.25
2022-08-26T04:00:18.732Z,101523.00
2022-08-26T04:02:51.213Z,101524.94
2022-08-26T04:05:23.545Z,101533.28
2022-08-26T04:07:54.005Z,101530.59
2022-08-26T04:10:29.126Z,101530.08
2022-08-26T04:13:00.213Z,101524.80
2022-08-26T04:15:30.417Z,101529.09
2022-08-26T04:18:00.184Z,101537.39
2022-08-26T04:20:29.787Z,101534.53
2022-08-26T04:22:59.552Z,101531.19
2022-08-26T04:25:29.319Z,101531.20
2022-08-26T04:27:59.107Z,101528.69
2022-08-26T04:30:28.866Z,101535.45
2022-08-26T04:32:58.723Z,101527.89
2022-08-26T04:35:28.560Z,101527.10
2022-08-26T04:37:59.608Z,101527.80
2022-08-26T04:40:29.376Z,101535.64
2022-08-26T04:42:59.138Z,101534.02
2022-08-26T04:45:30.249Z,101537.95
2022-08-26T04:48:00.018Z,101535.64
2022-08-26T04:50:29.850Z,101537.03
2022-08-26T04:53:00.258Z,101542.08
2022-08-26T04:55:39.804Z,101540.97
2022-08-26T04:58:02.478Z,101532.91
2022-08-26T05:00:32.240Z,101532.91
2022-08-26T05:03:02.117Z,101555.26
2022-08-26T05:05:31.989Z,101546.72
2022-08-26T05:08:01.963Z,101549.88
2022-08-26T05:10:33.141Z,101560.21
2022-08-26T05:13:03.643Z,101558.27
2022-08-26T05:15:36.684Z,101551.49
2022-08-26T05:18:08.796Z,101559.84
2022-08-26T05:20:44.592Z,101554.83
2022-08-26T05:23:15.673Z,101559.57
2022-08-26T05:25:48.575Z,101562.67
2022-08-26T05:28:20.072Z,101559.42
2022-08-26T05:30:52.783Z,101563.59
2022-08-26T05:33:23.279Z,101562.30
2022-08-26T05:35:53.201Z,101568.73
2022-08-26T05:38:23.338Z,101544.91
2022-08-26T05:40:54.675Z,101544.91
2022-08-26T05:43:24.147Z,101570.00
2022-08-26T05:45:54.074Z,101556.55
2022-08-26T05:48:24.654Z,101556.55
2022-08-26T05:50:54.766Z,101569.53
2022-08-26T05:53:25.908Z,101567.62
2022-08-26T05:55:58.139Z,101570.51
2022-08-26T05:58:28.550Z,101569.34
2022-08-26T06:01:01.097Z,101576.72
2022-08-26T06:03:31.786Z,101575.36
2022-08-26T06:06:04.925Z,101575.64
2022-08-26T06:08:37.638Z,101578.11
2022-08-26T06:11:18.356Z,101587.25
2022-08-26T06:13:43.738Z,101593.41
2022-08-26T06:16:16.158Z,101593.41
2022-08-26T06:18:48.622Z,101588.96
2022-08-26T06:21:30.169Z,101593.17
2022-08-26T06:24:20.977Z,101580.68
2022-08-26T06:26:56.272Z,101580.68
2022-08-26T06:29:27.758Z,101596.55
2022-08-26T06:31:58.176Z,101601.25
2022-08-26T06:34:31.582Z,101595.40
2022-08-26T06:37:03.348Z,101605.77
2022-08-26T06:39:33.254Z,101601.31
2022-08-26T06:42:03.416Z,101609.48
2022-08-26T06:44:36.101Z,101616.66
2022-08-26T06:47:06.976Z,101615.20
2022-08-26T06:49:37.109Z,101610.78
2022-08-26T06:52:08.412Z,101610.78
2022-08-26T06:54:41.457Z,101630.86
2022-08-26T06:57:14.279Z,101624.95
2022-08-26T06:59:45.000Z,101624.19
2022-08-26T07:02:15.212Z,101624.98
2022-08-26T07:04:47.942Z,101630.75
2022-08-26T07:07:17.841Z,101606.36
2022-08-26T07:09:49.308Z,101606.36
2022-08-26T07:12:20.544Z,101626.78
2022-08-26T07:14:50.682Z,101628.42
2022-08-26T07:17:20.732Z,101627.33
2022-08-26T07:19:52.926Z,101630.23
2022-08-26T07:22:22.467Z,101633.19
2022-08-26T07:24:53.793Z,101637.99
2022-08-26T07:27:23.839Z,101637.58
2022-08-26T07:29:56.717Z,101643.16
2022-08-26T07:32:26.482Z,101642.28
2022-08-26T07:34:56.249Z,101635.97
2022-08-26T07:37:26.151Z,101644.66
2022-08-26T07:39:55.956Z,101646.56
2022-08-26T07:42:25.585Z,101648.20
2022-08-26T07:44:55.356Z,101644.48
2022-08-26T07:47:26.221Z,101645.16
2022-08-26T07:49:58.494Z,101646.06
2022-08-26T07:52:30.412Z,101663.83
2022-08-26T07:55:04.280Z,101661.50
2022-08-26T07:57:34.466Z,101661.19
2022-08-26T08:00:08.572Z,101657.63
2022-08-26T08:02:40.188Z,101664.63
2022-08-26T08:05:10.078Z,101662.38
2022-08-26T08:07:44.723Z,101658.78
2022-08-26T08:10:21.029Z,101664.66
2022-08-26T08:12:51.970Z,101659.90
2022-08-26T08:15:26.108Z,101656.59
2022-08-26T08:18:00.233Z,101656.61
2022-08-26T08:20:29.807Z,101661.35
2022-08-26T08:23:00.050Z,101642.16
2022-08-26T08:25:29.832Z,101642.16
2022-08-26T08:28:00.180Z,101670.80
2022-08-26T08:30:30.489Z,101667.51
2022-08-26T08:33:01.596Z,101660.28
2022-08-26T08:35:32.506Z,101668.89
2022-08-26T08:38:04.132Z,101680.30
2022-08-26T08:40:34.201Z,101677.28
2022-08-26T08:43:23.959Z,101681.10
2022-08-26T08:45:59.935Z,101675.33
2022-08-26T08:48:33.012Z,101678.95
2022-08-26T08:51:20.647Z,101675.31
2022-08-26T08:53:54.618Z,101688.69
2022-08-26T08:56:33.725Z,101682.33
2022-08-26T08:59:14.530Z,101667.80
2022-08-26T09:02:03.045Z,101667.80
2022-08-26T09:04:52.490Z,101681.41
2022-08-26T09:07:25.666Z,101685.09
2022-08-26T09:10:20.100Z,101683.16
2022-08-26T09:12:51.421Z,101687.51
2022-08-26T09:15:30.675Z,101680.61
2022-08-26T09:18:18.728Z,101688.66
2022-08-26T09:21:00.177Z,101687.01
2022-08-26T09:23:30.712Z,101693.39
2022-08-26T09:26:17.835Z,101690.66
2022-08-26T09:28:51.705Z,101690.63
2022-08-26T09:31:29.267Z,101698.72
2022-08-26T09:34:08.029Z,101700.63
2022-08-26T09:36:43.821Z,101695.41
2022-08-26T09:39:31.549Z,101693.98
2022-08-26T09:42:16.680Z,101696.48
2022-08-26T09:44:56.351Z,101694.78
2022-08-26T09:47:35.087Z,101698.05
2022-08-26T09:50:13.788Z,101693.08
2022-08-26T09:52:43.627Z,101695.98
2022-08-26T09:55:16.380Z,101686.92
2022-08-26T09:57:55.092Z,101691.16
2022-08-26T10:00:45.673Z,101698.13
2022-08-26T10:03:18.794Z,101699.83
2022-08-26T10:06:03.617Z,101692.59
2022-08-26T10:08:38.845Z,101693.70
2022-08-26T10:11:29.117Z,101693.70
2022-08-26T10:14:04.658Z,101688.17
2022-08-26T10:16:37.461Z,101694.81
2022-08-26T10:19:16.122Z,101680.91
2022-08-26T10:22:01.388Z,101680.91
2022-08-26T10:24:34.942Z,101684.29
2022-08-26T10:27:23.210Z,101691.50
2022-08-26T10:29:56.793Z,101692.00
2022-08-26T10:32:35.495Z,101692.66
2022-08-26T10:35:10.845Z,101697.70
2022-08-26T10:37:48.011Z,101694.72
2022-08-26T10:40:28.005Z,101692.31
2022-08-26T10:43:12.512Z,101699.30
2022-08-26T10:45:57.271Z,101688.17
2022-08-26T10:48:47.562Z,101696.56
2022-08-26T10:51:20.368Z,101703.73
2022-08-26T10:53:57.772Z,101685.56
2022-08-26T10:56:41.933Z,101685.56
2022-08-26T10:59:17.473Z,101704.57
2022-08-26T11:02:06.294Z,101704.03
2022-08-26T11:04:50.750Z,101708.25
2022-08-26T11:07:39.056Z,101699.33
2022-08-26T11:10:23.544Z,101699.61
2022-08-26T11:12:59.803Z,101705.38
2022-08-26T11:15:30.216Z,101705.41
2022-08-26T11:18:07.727Z,101699.91
2022-08-26T11:20:44.753Z,101700.80
2022-08-26T11:23:26.381Z,101699.70
2022-08-26T11:25:59.753Z,101707.79
2022-08-26T11:28:49.999Z,101702.77
2022-08-26T11:31:29.626Z,101701.11
2022-08-26T11:34:08.694Z,101694.33
2022-08-26T11:36:49.087Z,101690.98
2022-08-26T11:39:36.962Z,101683.70
2022-08-26T11:42:28.290Z,101683.70
2022-08-26T11:45:02.375Z,101699.07
2022-08-26T11:47:32.451Z,101686.15
2022-08-26T11:50:11.825Z,101686.15
2022-08-26T11:52:41.634Z,101697.84
2022-08-26T11:55:14.662Z,101700.95
2022-08-26T11:57:50.680Z,101706.36
2022-08-26T12:00:23.603Z,101701.55
2022-08-26T12:02:55.630Z,101700.72
2022-08-26T12:05:31.037Z,101697.42
2022-08-26T12:08:03.133Z,101696.88
2022-08-26T12:10:34.731Z,101703.32
2022-08-26T12:13:07.100Z,101693.30
2022-08-26T12:15:37.232Z,101692.98
2022-08-26T12:18:28.845Z,101693.28
2022-08-26T12:20:52.655Z,101688.84
2022-08-26T12:23:26.802Z,101691.63
2022-08-26T12:26:05.431Z,101683.53
2022-08-26T12:28:44.463Z,101690.21
2022-08-26T12:31:17.580Z,101685.44
2022-08-26T12:33:49.476Z,101688.13
2022-08-26T12:36:22.120Z,101685.42
2022-08-26T12:38:53.709Z,101685.93
2022-08-26T12:41:44.432Z,101685.60
2022-08-26T12:44:36.553Z,101690.49
2022-08-26T12:47:11.821Z,101695.79
2022-08-26T12:49:43.628Z,101703.04
2022-08-26T12:52:26.672Z,101706.70
2022-08-26T12:55:00.465Z,101704.73
2022-08-26T12:57:36.550Z,101719.78
2022-08-26T13:00:28.496Z,101715.05
2022-08-26T13:02:59.519Z,101714.53
2022-08-26T13:05:35.508Z,101714.53
2022-08-26T13:08:19.351Z,101711.43
2022-08-26T13:10:50.685Z,101708.65
2022-08-26T13:13:20.449Z,101709.48
2022-08-26T13:15:50.100Z,101718.95
2022-08-26T13:18:19.881Z,101689.87
2022-08-26T13:20:49.396Z,101713.05
2022-08-26T13:23:21.125Z,101705.16
2022-08-26T13:25:51.505Z,101706.36
2022-08-26T13:28:20.997Z,101703.80
2022-08-26T13:30:50.762Z,101703.53
2022-08-26T13:33:21.489Z,101708.31
2022-08-26T13:35:51.257Z,101710.52
2022-08-26T13:38:32.964Z,101707.97
2022-08-26T13:40:52.805Z,101703.86
2022-08-26T13:43:22.568Z,101703.73
2022-08-26T13:45:52.319Z,101705.96
2022-08-26T13:48:23.674Z,101703.11
2022-08-26T13:50:53.751Z,101686.12
2022-08-26T13:53:23.575Z,101692.28
2022-08-26T13:55:53.338Z,101692.28
2022-08-26T13:58:23.015Z,101706.85
2022-08-26T14:00:55.567Z,101702.19
2022-08-26T14:03:25.785Z,101706.38
2022-08-26T14:05:55.891Z,101702.48
2022-08-26T14:08:25.551Z,101701.09
2022-08-26T14:10:55.485Z,101703.61
2022-08-26T14:13:25.298Z,101698.05
2022-08-26T14:15:56.444Z,101698.02
2022-08-26T14:18:29.557Z,101695.52
2022-08-26T14:21:00.144Z,101699.72
2022-08-26T14:23:29.936Z,101698.31
2022-08-26T14:26:00.040Z,101702.50
2022-08-26T14:28:29.801Z,101697.20
2022-08-26T14:30:59.954Z,101698.33
2022-08-26T14:33:32.591Z,101691.61
2022-08-26T14:36:20.418Z,101689.67
2022-08-26T14:38:50.723Z,101685.49
2022-08-26T14:41:21.528Z,101683.53
2022-08-26T14:43:59.259Z,101672.89
2022-08-26T14:46:34.821Z,101669.29
2022-08-26T14:49:09.875Z,101660.94
2022-08-26T14:51:36.994Z,101660.90
2022-08-26T14:54:12.231Z,101660.05
2022-08-26T14:56:51.160Z,101650.06
2022-08-26T14:59:24.028Z,101650.06
2022-08-26T15:01:54.705Z,101656.18
2022-08-26T15:04:25.319Z,101648.90
2022-08-26T15:06:57.086Z,101650.58
2022-08-26T15:09:28.282Z,101652.02
2022-08-26T15:11:58.045Z,101658.70
2022-08-26T15:14:32.694Z,101654.52
2022-08-26T15:16:59.642Z,101657.58
2022-08-26T15:19:29.839Z,101654.23
2022-08-26T15:21:59.589Z,101662.59
2022-08-26T15:24:29.918Z,101669.02
2022-08-26T15:26:59.685Z,101665.97
2022-08-26T15:29:29.815Z,101672.29
2022-08-26T15:32:01.581Z,101675.42
2022-08-26T15:34:31.968Z,101666.80
2022-08-26T15:37:02.004Z,101670.41
2022-08-26T15:39:31.851Z,101674.87
2022-08-26T15:42:02.076Z,101657.84
2022-08-26T15:44:33.549Z,101674.30
2022-08-26T15:47:03.518Z,101675.98
2022-08-26T15:49:33.258Z,101674.59
2022-08-26T15:52:05.294Z,101673.45
2022-08-26T15:54:35.139Z,101674.23
2022-08-26T15:57:08.194Z,101671.77
2022-08-26T15:59:36.711Z,101668.36
2022-08-26T16:02:08.083Z,101664.82
2022-08-26T16:04:38.077Z,101668.67
2022-08-26T16:07:07.845Z,101666.51
2022-08-26T16:09:37.680Z,101662.33
2022-08-26T16:12:08.570Z,101664.56
2022-08-26T16:14:38.817Z,101665.66
2022-08-26T16:17:08.596Z,101656.73
2022-08-26T16:19:38.429Z,101656.74
2022-08-26T16:22:09.591Z,101653.66
2022-08-26T16:24:39.607Z,101654.22
2022-08-26T16:27:09.849Z,101657.28
2022-08-26T16:29:39.766Z,101637.16
2022-08-26T16:32:11.487Z,101637.16
2022-08-26T16:34:46.972Z,101658.67
2022-08-26T16:37:14.785Z,101661.10
2022-08-26T16:39:45.260Z,101657.58
2022-08-26T16:42:15.235Z,101658.42
2022-08-26T16:44:45.075Z,101658.62
2022-08-26T16:47:15.967Z,101658.61
2022-08-26T16:49:46.739Z,101639.06
2022-08-26T16:52:16.383Z,101639.06
2022-08-26T16:54:46.162Z,101652.45
2022-08-26T16:57:16.000Z,101651.91
2022-08-26T16:59:45.934Z,101655.00
2022-08-26T17:02:15.858Z,101657.55
2022-08-26T17:04:47.156Z,101656.59
2022-08-26T17:07:17.107Z,101659.95
2022-08-26T17:09:46.863Z,101658.53
2022-08-26T17:12:17.211Z,101660.48
2022-08-26T17:14:46.974Z,101662.09
2022-08-26T17:17:16.743Z,101665.50
2022-08-26T17:19:47.400Z,101665.72
2022-08-26T17:22:17.612Z,101668.25
2022-08-26T17:24:47.394Z,101667.58
2022-08-26T17:27:17.152Z,101660.70
2022-08-26T17:29:46.922Z,101669.39
2022-08-26T17:32:17.048Z,101663.00
2022-08-26T17:34:46.809Z,101663.00
2022-08-26T17:37:17.348Z,101680.30
2022-08-26T17:39:47.120Z,101686.11
2022-08-26T17:42:16.788Z,101685.98
2022-08-26T17:44:48.296Z,101686.54
2022-08-26T17:47:18.418Z,101688.14
2022-08-26T17:49:48.349Z,101688.08
2022-08-26T17:52:18.109Z,101691.98
2022-08-26T17:54:47.875Z,101695.34
2022-08-26T17:57:17.639Z,101695.34
2022-08-26T17:59:48.490Z,101692.61
2022-08-26T18:02:18.340Z,101698.75
2022-08-26T18:04:48.936Z,101677.07
2022-08-26T18:07:19.025Z,101703.05
2022-08-26T18:09:48.797Z,101700.89
2022-08-26T18:12:18.298Z,101697.73
2022-08-26T18:14:48.410Z,101683.44
2022-08-26T18:17:19.420Z,101683.44
2022-08-26T18:19:49.376Z,101709.53
2022-08-26T18:22:19.150Z,101711.41
2022-08-26T18:24:58.655Z,101713.63
2022-08-26T18:27:20.102Z,101698.57
2022-08-26T18:29:50.339Z,101698.57
2022-08-26T18:32:20.098Z,101721.45
2022-08-26T18:34:49.872Z,101717.05
2022-08-26T18:37:19.630Z,101713.31
2022-08-26T18:39:49.425Z,101713.31
2022-08-26T18:42:19.042Z,101722.72
2022-08-26T18:44:53.089Z,101737.24
2022-08-26T18:47:23.091Z,101713.97
2022-08-26T18:49:52.865Z,101713.97
2022-08-26T18:52:22.787Z,101741.38
2022-08-26T18:54:53.908Z,101741.13
2022-08-26T18:57:23.900Z,101742.02
2022-08-26T18:59:53.671Z,101749.36
2022-08-26T19:02:24.317Z,101750.20
2022-08-26T19:04:54.347Z,101751.32
2022-08-26T19:07:24.094Z,101743.15
2022-08-26T19:09:54.264Z,101743.31
2022-08-26T19:12:26.974Z,101743.31
2022-08-26T19:14:56.903Z,101760.37
2022-08-26T19:17:27.054Z,101751.42
2022-08-26T19:19:56.813Z,101751.72
2022-08-26T19:22:26.573Z,101755.91
2022-08-26T19:24:56.357Z,101752.06
2022-08-26T19:27:26.119Z,101754.42
2022-08-26T19:29:57.629Z,101759.27
2022-08-26T19:32:27.197Z,101761.63
2022-08-26T19:34:56.963Z,101759.47
2022-08-26T19:37:26.737Z,101760.75
2022-08-26T19:39:56.833Z,101756.07
2022-08-26T19:42:26.765Z,101756.75
2022-08-26T19:45:20.237Z,101760.07
2022-08-26T19:47:41.825Z,101758.84
2022-08-26T19:50:15.064Z,101770.26
2022-08-26T19:52:45.195Z,101765.69
2022-08-26T19:55:17.092Z,101765.47
2022-08-26T19:57:47.023Z,101766.08
2022-08-26T20:00:19.796Z,101774.19
2022-08-26T20:02:50.425Z,101768.81
2022-08-26T20:05:22.156Z,101772.52
2022-08-26T20:07:52.327Z,101764.47
2022-08-26T20:10:24.337Z,101770.28
2022-08-26T20:12:54.339Z,101773.20
2022-08-26T20:15:24.448Z,101772.52
2022-08-26T20:17:56.192Z,101772.48
2022-08-26T20:20:43.341Z,101772.72
2022-08-26T20:23:13.176Z,101777.80
2022-08-26T20:25:43.228Z,101769.88
2022-08-26T20:28:13.001Z,101772.19
2022-08-26T20:30:43.079Z,101771.23
2022-08-26T20:33:12.846Z,101774.62
2022-08-26T20:35:43.182Z,101764.36
2022-08-26T20:38:13.021Z,101756.55
2022-08-26T20:40:43.460Z,101759.27
2022-08-26T20:43:13.254Z,101762.22
2022-08-26T20:45:43.397Z,101772.17
2022-08-26T20:48:14.493Z,101770.86
2022-08-26T20:50:44.335Z,101770.52
2022-08-26T20:53:14.352Z,101768.69
2022-08-26T20:55:44.134Z,101770.31
2022-08-26T20:58:13.981Z,101762.27
2022-08-26T21:00:44.114Z,101762.27
2022-08-26T21:03:14.223Z,101777.42
2022-08-26T21:05:44.070Z,101783.14
2022-08-26T21:08:13.915Z,101780.14
2022-08-26T21:10:43.657Z,101780.48
2022-08-26T21:13:15.114Z,101782.83
2022-08-26T21:15:45.321Z,101783.75
2022-08-26T21:18:15.100Z,101777.27
2022-08-26T21:20:44.865Z,101782.53
2022-08-26T21:23:14.700Z,101783.69
2022-08-26T21:25:44.743Z,101781.46
2022-08-26T21:28:14.515Z,101782.66
2022-08-26T21:30:44.434Z,101790.20
2022-08-26T21:33:14.271Z,101786.91
2022-08-26T21:35:45.538Z,101782.95
2022-08-26T21:38:15.173Z,101784.50
2022-08-26T21:40:44.937Z,101784.50
2022-08-26T21:43:20.606Z,101788.95
2022-08-26T21:45:45.949Z,101789.33
2022-08-26T21:48:15.735Z,101792.83
2022-08-26T21:50:45.495Z,101789.44
2022-08-26T21:53:15.424Z,101791.08
2022-08-26T21:55:45.492Z,101788.63
2022-08-26T21:58:15.741Z,101790.71
2022-08-26T22:00:50.901Z,101785.72
2022-08-26T22:03:20.458Z,101787.98
2022-08-26T22:05:51.101Z,101790.23
2022-08-26T22:08:23.350Z,101786.70
2022-08-26T22:10:55.010Z,101774.48
2022-08-26T22:13:29.225Z,101788.97
2022-08-26T22:16:00.760Z,101790.86
2022-08-26T22:18:30.941Z,101795.86
2022-08-26T22:21:03.539Z,101795.86
2022-08-26T22:23:34.929Z,101798.08
2022-08-26T22:26:07.978Z,101797.42
2022-08-26T22:28:39.249Z,101790.56
2022-08-26T22:31:11.223Z,101799.58
2022-08-26T22:33:42.762Z,101796.36
2022-08-26T22:36:25.190Z,101797.55
2022-08-26T22:38:56.802Z,101807.80
2022-08-26T22:41:26.959Z,101801.97
2022-08-26T22:43:56.728Z,101803.45
2022-08-26T22:46:27.726Z,101804.04
2022-08-26T22:48:57.754Z,101801.36
2022-08-26T22:51:27.857Z,101797.70
2022-08-26T22:53:57.985Z,101795.11
2022-08-26T22:56:27.857Z,101790.73
2022-08-26T22:58:57.922Z,101791.92
2022-08-26T23:01:28.133Z,101789.61
2022-08-26T23:03:58.181Z,101789.30
2022-08-26T23:06:27.753Z,101784.95
2022-08-26T23:08:57.527Z,101784.95
2022-08-26T23:11:27.291Z,101782.81
2022-08-26T23:13:57.234Z,101789.13
2022-08-26T23:16:26.781Z,101796.30
2022-08-26T23:18:56.485Z,101804.05
2022-08-26T23:21:26.273Z,101782.83
2022-08-26T23:23:56.200Z,101782.83
2022-08-26T23:26:25.977Z,101801.64
2022-08-26T23:28:56.393Z,101797.05
2022-08-26T23:31:26.008Z,101790.28
2022-08-26T23:34:13.574Z,101790.28
2022-08-26T23:36:44.603Z,101790.09
2022-08-26T23:39:15.554Z,101783.83
2022-08-26T23:41:45.384Z,101775.88
2022-08-26T23:44:14.973Z,101774.69
2022-08-26T23:46:44.513Z,101771.98
2022-08-26T23:49:14.345Z,101765.91
2022-08-26T23:52:01.842Z,101770.19
2022-08-26T23:54:33.073Z,101764.77
2022-08-26T23:57:02.999Z,101766.85
2022-08-26T23:59:33.869Z,101768.83
